Decoded Metar for KDYA ( in ) (IATA:) | Meteo·Mobile Aviation Weather
aviador You're here:

KDYA Decoded Metar

in
Report Time2018-12-13 04:35:00
UTC Time2018-12-13 04:52:51
Flight Rules vfr VFR
WindCalm
Visibility9999 m
Phenomena:N/A
Clouds:N/A
Expected CloudBase > 400 ft AGL from Temp-Dew spread
CeilingNone
Temp08°C
Dew Point07°C (93% RH)
AAT7.3°C
QNH1020 hPa
Raw Report
METAR KDYA 130435Z AUTO 00000KT 10SM CLR 08/07 A3013 RMK AO2 T00820071=

Extra information for KDYA:More info

Social comments